Ryoho Maru No.2 — JD2964 — position and weather

sailwx.info

Track history (hours):
 
Tides and Currents Weather Stations Pressure Air Temp Water Temp Dewpoint Dewpoint Depression Visibility Wind Speed Wind Dir Waves Ship Positions

Ryoho Maru No.2

Last reported at 2016-May-26 00:28 UTC. Time now 2016-May-26 00:44 UTC.
Position N 35°32' E 139°45'.

Length 57 m; draft 4 m.

Type: Tanker. MMSI: 431001062.

Date/timePositionNaut miles runAvg speedWind from/ knotsBaromVisibWave heightAir tempDewpointWater temp
2016-May-26 00:28N 35°32' E 139°45'1 1.4
2016-May-25 23:34N 35°31' E 139°46'3 2.7
2016-May-25 22:32N 35°30' E 139°49'0 0.0
2016-May-25 21:32N 35°30' E 139°49'0 0.0
2016-May-25 20:32N 35°30' E 139°49'0 0.0
2016-May-25 19:29N 35°30' E 139°49'0 0.0
2016-May-25 18:29N 35°30' E 139°49'0 0.0
2016-May-25 17:32N 35°30' E 139°49'0 0.0
2016-May-25 16:32N 35°30' E 139°49'0 0.0
2016-May-25 15:32N 35°30' E 139°49'0 0.0
2016-May-25 14:32N 35°30' E 139°49'0 0.0
2016-May-25 13:32N 35°30' E 139°49'0 0.0
2016-May-25 12:32N 35°30' E 139°49'0 0.0
2016-May-25 11:32N 35°30' E 139°49'0 0.0
2016-May-25 10:32N 35°30' E 139°49'0 0.0
2016-May-25 09:32N 35°30' E 139°49'0 0.0
2016-May-25 08:32N 35°30' E 139°49'0 0.0
2016-May-25 07:32N 35°30' E 139°49'0 0.0
2016-May-25 06:32N 35°30' E 139°49'1 0.6
2016-May-25 05:33N 35°30' E 139°50'9 9.1
2016-May-25 04:33N 35°28' E 140°01'0 0.2
2016-May-25 03:29N 35°28' E 140°01'0 0.0
2016-May-25 02:11N 35°28' E 140°01'0 0.0
2016-May-25 01:23N 35°28' E 140°01'0 0.0
2016-May-25 00:23N 35°28' E 140°01'0 0.0
2016-May-24 23:29N 35°28' E 140°01'1 1.4
2016-May-24 22:32N 35°29' E 139°60'0 0.1
2016-May-24 21:30N 35°29' E 139°60'0 0.0
2016-May-24 20:34N 35°29' E 139°60'0 0.0
2016-May-24 19:31N 35°29' E 139°60'0 0.1
2016-May-24 18:32N 35°29' E 139°60'0 0.1
2016-May-24 17:31N 35°29' E 139°60'0 0.0
2016-May-24 16:32N 35°29' E 139°60'0 0.0
2016-May-24 15:28N 35°29' E 139°60'0 0.0
2016-May-24 14:33N 35°29' E 139°60'0 0.0
2016-May-24 13:33N 35°29' E 139°60'0 0.1
2016-May-24 12:31N 35°29' E 139°60'0 0.0
2016-May-24 11:33N 35°29' E 139°60'0 0.0
2016-May-24 10:27N 35°29' E 139°60'0 0.0
2016-May-24 09:33N 35°29' E 139°60'0 0.0
2016-May-24 08:33N 35°29' E 139°60'0 0.0
2016-May-24 07:33N 35°29' E 139°60'0 0.0
2016-May-24 06:32N 35°29' E 139°60'0 0.0
2016-May-24 05:33N 35°29' E 139°60'0 0.0
2016-May-24 04:33N 35°29' E 139°60'0 0.1
2016-May-24 03:33N 35°29' E 139°60'0 0.0
2016-May-24 02:30N 35°29' E 139°60'0 0.0
2016-May-24 01:33N 35°29' E 139°60'0 0.0
2016-May-24 00:21N 35°29' E 139°60'0 0.0
2016-May-23 23:27N 35°29' E 139°60'0 0.0
2016-May-23 22:33N 35°29' E 139°60'0 0.0
2016-May-23 21:33N 35°29' E 139°60'0 0.0
2016-May-23 20:33N 35°29' E 139°60'0 0.1
2016-May-23 19:33N 35°29' E 139°60'10 9.5
2016-May-23 18:33N 35°26' E 139°49'10 9.6
2016-May-23 17:33N 35°17' E 139°46'10 9.6
2016-May-23 16:33N 35°07' E 139°44'10 9.8
2016-May-23 15:33N 35°00' E 139°36'1111.1
2016-May-23 14:33N 34°53' E 139°25'1110.8
2016-May-23 13:32N 34°47' E 139°15'  
2016-May-20 20:27N 34°50' E 139°35'1010.1
2016-May-20 19:27N 34°52' E 139°47'9 9.9
2016-May-20 18:33N 34°53' E 139°58'9 9.5
2016-May-20 17:34N 34°59' E 140°07'10 9.3
2016-May-20 16:31N 35°04' E 140°17'9 8.6
2016-May-20 15:27N 35°10' E 140°25'1010.6
2016-May-20 14:33N 35°17' E 140°33'1110.7
2016-May-20 13:33N 35°26' E 140°41'1310.7
2016-May-20 12:19N 35°36' E 140°50'1110.6
2016-May-20 11:17N 35°47' E 140°55'910.8
2016-May-20 10:27N 35°55' E 140°57'  
Track history (hours):
 
Tides and Currents Weather Stations Pressure Air Temp Water Temp Dewpoint Dewpoint Depression Visibility Wind Speed Wind Dir Waves Ship Positions

Ryoho Maru No.2

Last reported at 2016-May-26 00:28 UTC. Time now 2016-May-26 00:44 UTC.
Position N 35°32' E 139°45'.

Length 57 m; draft 4 m.

Type: Tanker. MMSI: 431001062.

Date/timePositionNaut miles runAvg speedWind from/ knotsBaromVisibWave heightAir tempDewpointWater temp
2016-May-26 00:28N 35°32' E 139°45'1 1.4
2016-May-25 23:34N 35°31' E 139°46'3 2.7
2016-May-25 22:32N 35°30' E 139°49'0 0.0
2016-May-25 21:32N 35°30' E 139°49'0 0.0
2016-May-25 20:32N 35°30' E 139°49'0 0.0
2016-May-25 19:29N 35°30' E 139°49'0 0.0
2016-May-25 18:29N 35°30' E 139°49'0 0.0
2016-May-25 17:32N 35°30' E 139°49'0 0.0
2016-May-25 16:32N 35°30' E 139°49'0 0.0
2016-May-25 15:32N 35°30' E 139°49'0 0.0
2016-May-25 14:32N 35°30' E 139°49'0 0.0
2016-May-25 13:32N 35°30' E 139°49'0 0.0
2016-May-25 12:32N 35°30' E 139°49'0 0.0
2016-May-25 11:32N 35°30' E 139°49'0 0.0
2016-May-25 10:32N 35°30' E 139°49'0 0.0
2016-May-25 09:32N 35°30' E 139°49'0 0.0
2016-May-25 08:32N 35°30' E 139°49'0 0.0
2016-May-25 07:32N 35°30' E 139°49'0 0.0
2016-May-25 06:32N 35°30' E 139°49'1 0.6
2016-May-25 05:33N 35°30' E 139°50'9 9.1
2016-May-25 04:33N 35°28' E 140°01'0 0.2
2016-May-25 03:29N 35°28' E 140°01'0 0.0
2016-May-25 02:11N 35°28' E 140°01'0 0.0
2016-May-25 01:23N 35°28' E 140°01'0 0.0
2016-May-25 00:23N 35°28' E 140°01'0 0.0
2016-May-24 23:29N 35°28' E 140°01'1 1.4
2016-May-24 22:32N 35°29' E 139°60'0 0.1
2016-May-24 21:30N 35°29' E 139°60'0 0.0
2016-May-24 20:34N 35°29' E 139°60'0 0.0
2016-May-24 19:31N 35°29' E 139°60'0 0.1
2016-May-24 18:32N 35°29' E 139°60'0 0.1
2016-May-24 17:31N 35°29' E 139°60'0 0.0
2016-May-24 16:32N 35°29' E 139°60'0 0.0
2016-May-24 15:28N 35°29' E 139°60'0 0.0
2016-May-24 14:33N 35°29' E 139°60'0 0.0
2016-May-24 13:33N 35°29' E 139°60'0 0.1
2016-May-24 12:31N 35°29' E 139°60'0 0.0
2016-May-24 11:33N 35°29' E 139°60'0 0.0
2016-May-24 10:27N 35°29' E 139°60'0 0.0
2016-May-24 09:33N 35°29' E 139°60'0 0.0
2016-May-24 08:33N 35°29' E 139°60'0 0.0
2016-May-24 07:33N 35°29' E 139°60'0 0.0
2016-May-24 06:32N 35°29' E 139°60'0 0.0
2016-May-24 05:33N 35°29' E 139°60'0 0.0
2016-May-24 04:33N 35°29' E 139°60'0 0.1
2016-May-24 03:33N 35°29' E 139°60'0 0.0
2016-May-24 02:30N 35°29' E 139°60'0 0.0
2016-May-24 01:33N 35°29' E 139°60'0 0.0
2016-May-24 00:21N 35°29' E 139°60'0 0.0
2016-May-23 23:27N 35°29' E 139°60'0 0.0
2016-May-23 22:33N 35°29' E 139°60'0 0.0
2016-May-23 21:33N 35°29' E 139°60'0 0.0
2016-May-23 20:33N 35°29' E 139°60'0 0.1
2016-May-23 19:33N 35°29' E 139°60'10 9.5
2016-May-23 18:33N 35°26' E 139°49'10 9.6
2016-May-23 17:33N 35°17' E 139°46'10 9.6
2016-May-23 16:33N 35°07' E 139°44'10 9.8
2016-May-23 15:33N 35°00' E 139°36'1111.1
2016-May-23 14:33N 34°53' E 139°25'1110.8
2016-May-23 13:32N 34°47' E 139°15'  
2016-May-20 20:27N 34°50' E 139°35'1010.1
2016-May-20 19:27N 34°52' E 139°47'9 9.9
2016-May-20 18:33N 34°53' E 139°58'9 9.5
2016-May-20 17:34N 34°59' E 140°07'10 9.3
2016-May-20 16:31N 35°04' E 140°17'9 8.6
2016-May-20 15:27N 35°10' E 140°25'1010.6
2016-May-20 14:33N 35°17' E 140°33'1110.7
2016-May-20 13:33N 35°26' E 140°41'1310.7
2016-May-20 12:19N 35°36' E 140°50'1110.6
2016-May-20 11:17N 35°47' E 140°55'910.8
2016-May-20 10:27N 35°55' E 140°57'  

Dump ship's entire track history